Time;durP1;ratioP1;P1;durP2;ratioP2;P2;SDS_P1;SDS_P2;PMS_P1;PMS_P2;Temp;Humidity;BMP_temperature;BMP_pressure;BME280_temperature;BME280_humidity;BME280_pressure;Samples;Min_cycle;Max_cycle;Signal;HPM_P1;HPM_P2
2022/11/12 00:01:14;;;;;;;22.52;15.13;;;7.60;96.60;;;;;;5055623;28;20040;-81
2022/11/12 00:03:40;;;;;;;20.67;13.85;;;7.60;96.40;;;;;;5038957;28;20118;-81
2022/11/12 00:06:06;;;;;;;20.85;11.93;;;7.50;96.10;;;;;;5055477;28;20045;-80
2022/11/12 00:08:32;;;;;;;20.23;12.27;;;7.30;95.90;;;;;;5055599;28;20048;-82
2022/11/12 00:10:57;;;;;;;17.27;13.20;;;7.30;96.00;;;;;;5038600;28;20463;-82
2022/11/12 00:13:23;;;;;;;16.48;12.73;;;7.30;96.10;;;;;;5038783;28;20036;-83
2022/11/12 00:15:49;;;;;;;19.98;12.95;;;7.30;96.30;;;;;;5038873;28;20033;-81
2022/11/12 00:18:15;;;;;;;16.67;11.45;;;7.40;96.30;;;;;;5055367;28;20044;-81
2022/11/12 00:20:40;;;;;;;13.15;10.43;;;7.20;95.90;;;;;;5039069;28;20051;-81
2022/11/12 00:23:06;;;;;;;14.65;10.50;;;7.10;95.80;;;;;;5055542;28;20477;-83
2022/11/12 00:25:32;;;;;;;17.48;10.18;;;7.10;95.60;;;;;;5055502;28;20484;-82
2022/11/12 00:28:06;;;;;;;15.40;10.98;;;7.00;95.60;;;;;;5071895;28;20366;-82
2022/11/12 00:30:32;;;;;;;19.63;12.27;;;7.00;95.60;;;;;;5072042;28;20488;-82
2022/11/12 00:33:01;;;;;;;14.82;9.73;;;7.00;95.50;;;;;;5038815;28;20036;-81
2022/11/12 00:35:27;;;;;;;17.55;13.48;;;7.00;95.60;;;;;;5088742;28;20043;-81
2022/11/12 00:37:54;;;;;;;21.25;12.90;;;7.00;95.60;;;;;;5038610;28;20036;-80
2022/11/12 00:40:20;;;;;;;17.75;11.95;;;7.00;95.50;;;;;;5071895;28;20047;-82
2022/11/12 00:42:46;;;;;;;18.10;11.90;;;7.00;95.40;;;;;;5038445;28;20041;-80
2022/11/12 00:45:11;;;;;;;18.88;11.70;;;6.90;95.20;;;;;;5072070;28;20048;-80
2022/11/12 00:47:37;;;;;;;15.88;11.13;;;6.90;95.10;;;;;;5055102;28;20519;-82
2022/11/12 00:50:03;;;;;;;17.33;13.23;;;6.90;95.30;;;;;;5029227;28;20041;-80
2022/11/12 00:52:28;;;;;;;17.65;12.90;;;6.90;95.30;;;;;;5038073;28;20119;-84
2022/11/12 00:54:54;;;;;;;20.65;13.05;;;6.90;95.50;;;;;;5038980;28;20110;-81
2022/11/12 00:57:20;;;;;;;19.38;12.68;;;6.90;95.60;;;;;;5039267;28;20045;-82
2022/11/12 00:59:45;;;;;;;18.35;12.57;;;6.90;95.60;;;;;;5039152;28;20074;-82
2022/11/12 01:02:11;;;;;;;14.85;11.57;;;6.90;95.50;;;;;;5022453;28;20404;-82
2022/11/12 01:04:37;;;;;;;15.65;10.88;;;6.80;95.40;;;;;;5022426;28;20044;-81
2022/11/12 01:07:02;;;;;;;11.45;8.82;;;6.70;95.30;;;;;;5038777;28;20036;-83
2022/11/12 01:09:28;;;;;;;17.25;11.68;;;6.80;95.50;;;;;;5055664;28;20052;-83
2022/11/12 01:11:54;;;;;;;12.63;10.27;;;6.80;95.60;;;;;;5022201;28;20048;-81
2022/11/12 01:14:19;;;;;;;13.75;9.90;;;6.70;95.30;;;;;;5055401;28;20047;-84
2022/11/12 01:16:45;;;;;;;22.33;12.60;;;6.60;95.20;;;;;;5022392;28;20481;-82
2022/11/12 01:19:12;;;;;;;10.90;9.32;;;6.60;95.30;;;;;;5021686;28;20036;-83
2022/11/12 01:21:41;;;;;;;16.13;11.55;;;6.60;95.40;;;;;;5038509;28;20041;-82
2022/11/12 01:24:08;;;;;;;14.68;10.23;;;6.60;95.60;;;;;;5038115;28;20115;-80
2022/11/12 01:26:34;;;;;;;39.00;14.43;;;6.60;95.60;;;;;;5038120;28;20133;-80
2022/11/12 01:28:59;;;;;;;13.82;10.75;;;6.50;95.60;;;;;;5021934;28;20040;-81
2022/11/12 01:31:27;;;;;;;30.23;13.32;;;6.50;95.70;;;;;;5038515;28;20039;-79
2022/11/12 01:33:55;;;;;;;19.80;13.07;;;6.50;95.70;;;;;;5038158;28;20033;-83
2022/11/12 01:36:22;;;;;;;33.22;13.10;;;6.50;95.70;;;;;;5038177;28;20493;-83
2022/11/12 01:38:48;;;;;;;78.75;15.88;;;6.50;95.90;;;;;;5038200;28;20045;-82
2022/11/12 01:41:18;;;;;;;60.25;14.45;;;6.40;95.80;;;;;;5054712;28;20041;-83
2022/11/12 01:43:44;;;;;;;42.75;13.75;;;6.30;95.60;;;;;;5037667;28;20044;-82
2022/11/12 01:46:28;;;;;;;58.95;16.80;;;6.20;95.50;;;;;;5037553;28;20045;-80
2022/11/12 01:48:58;;;;;;;21.75;14.45;;;6.20;95.60;;;;;;5054401;28;20037;-81
2022/11/12 01:51:31;;;;;;;19.02;13.00;;;6.20;95.90;;;;;;5038011;28;20051;-81
2022/11/12 01:54:00;;;;;;;15.00;11.23;;;6.20;96.00;;;;;;5071137;28;20098;-83
2022/11/12 01:56:29;;;;;;;17.42;12.63;;;6.20;95.90;;;;;;5071277;28;20056;-80
2022/11/12 01:59:01;;;;;;;20.10;12.65;;;6.20;95.90;;;;;;5038084;28;20041;-81
2022/11/12 02:01:26;;;;;;;17.08;12.48;;;6.10;96.00;;;;;;5037943;28;20056;-83
2022/11/12 02:03:52;;;;;;;18.33;12.90;;;6.10;96.10;;;;;;5020332;28;20041;-83
2022/11/12 02:06:19;;;;;;;21.77;15.38;;;6.10;96.20;;;;;;5037733;28;20370;-80
2022/11/12 02:08:45;;;;;;;19.55;13.88;;;6.20;96.20;;;;;;5021265;28;20041;-81
2022/11/12 02:11:19;;;;;;;15.75;12.45;;;6.10;96.10;;;;;;5021325;28;20037;-82
2022/11/12 02:14:02;;;;;;;17.42;12.90;;;6.10;96.00;;;;;;5037622;28;20076;-80
2022/11/12 02:16:38;;;;;;;18.92;12.57;;;6.10;95.90;;;;;;5023615;28;20045;-84
2022/11/12 02:19:06;;;;;;;22.17;15.75;;;6.10;96.20;;;;;;5037545;28;20051;-81
2022/11/12 02:21:33;;;;;;;23.25;15.57;;;6.10;96.40;;;;;;5037432;28;20048;-83
2022/11/12 02:24:02;;;;;;;22.33;15.65;;;6.10;96.40;;;;;;5020762;28;20076;-82
2022/11/12 02:26:33;;;;;;;21.02;14.57;;;6.10;96.30;;;;;;5054132;28;20039;-83
2022/11/12 02:28:59;;;;;;;22.08;15.15;;;6.10;96.30;;;;;;5054216;28;20477;-82
2022/11/12 02:31:24;;;;;;;18.48;13.05;;;6.10;96.30;;;;;;5020717;28;20075;-82
2022/11/12 02:33:50;;;;;;;24.75;17.25;;;6.10;96.30;;;;;;5020613;28;20068;-83
2022/11/12 02:36:16;;;;;;;24.50;15.38;;;6.10;96.40;;;;;;5020581;28;20041;-82
2022/11/12 02:38:42;;;;;;;22.17;15.68;;;6.10;96.40;;;;;;5020862;28;20091;-81
2022/11/12 02:41:07;;;;;;;26.27;18.13;;;6.10;96.40;;;;;;5020568;28;20393;-80
2022/11/12 02:43:33;;;;;;;18.85;14.55;;;6.10;96.50;;;;;;5053954;28;20043;-81
2022/11/12 02:45:58;;;;;;;19.75;15.38;;;6.20;96.60;;;;;;5037237;28;20041;-81
2022/11/12 02:48:24;;;;;;;22.08;15.50;;;6.20;96.50;;;;;;5020499;28;20432;-81
2022/11/12 02:50:50;;;;;;;21.98;15.82;;;6.20;96.60;;;;;;5020354;28;20037;-81
2022/11/12 02:53:16;;;;;;;24.40;18.17;;;6.20;96.70;;;;;;5036327;28;20099;-81
2022/11/12 02:55:42;;;;;;;22.33;14.20;;;6.30;96.70;;;;;;5053187;28;20081;-81
2022/11/12 02:58:08;;;;;;;25.33;17.45;;;6.40;96.70;;;;;;5020561;28;20064;-82
2022/11/12 03:00:34;;;;;;;25.42;17.30;;;6.40;96.80;;;;;;5020113;28;20041;-82
2022/11/12 03:03:00;;;;;;;27.55;18.33;;;6.40;96.70;;;;;;5053466;28;20045;-83
2022/11/12 03:05:31;;;;;;;21.92;15.90;;;6.50;96.60;;;;;;5036630;28;20049;-83
2022/11/12 03:07:58;;;;;;;19.60;14.57;;;6.50;96.70;;;;;;5020388;28;20507;-83
2022/11/12 03:10:25;;;;;;;25.95;16.30;;;6.50;96.70;;;;;;5020216;28;20170;-83
2022/11/12 03:12:51;;;;;;;24.35;16.73;;;6.60;96.70;;;;;;5036583;28;20511;-82
2022/11/12 03:15:17;;;;;;;22.60;16.27;;;6.60;96.70;;;;;;5052772;28;20040;-82
2022/11/12 03:17:43;;;;;;;17.10;13.00;;;6.60;96.60;;;;;;5036629;28;20040;-84
2022/11/12 03:20:10;;;;;;;21.15;15.68;;;6.60;96.60;;;;;;5036361;28;20699;-80
2022/11/12 03:22:37;;;;;;;22.25;16.38;;;6.60;96.60;;;;;;5069682;28;20048;-82
2022/11/12 03:25:03;;;;;;;25.42;17.27;;;6.60;96.60;;;;;;5052629;28;20037;-82
2022/11/12 03:27:29;;;;;;;24.15;17.73;;;6.70;96.60;;;;;;5036028;28;20538;-82
2022/11/12 03:29:55;;;;;;;22.67;16.52;;;6.70;96.60;;;;;;5036158;28;20044;-83
2022/11/12 03:32:20;;;;;;;23.45;15.48;;;6.60;96.30;;;;;;5019567;28;20077;-81
2022/11/12 03:34:46;;;;;;;19.77;15.90;;;6.60;96.50;;;;;;5019657;28;20064;-81
2022/11/12 03:37:12;;;;;;;23.15;17.77;;;6.60;96.50;;;;;;5019498;28;20051;-83
2022/11/12 03:39:37;;;;;;;21.52;16.52;;;6.60;96.60;;;;;;5019505;28;20041;-80
2022/11/12 03:42:03;;;;;;;19.52;15.35;;;6.70;96.60;;;;;;5035915;28;20400;-80
2022/11/12 03:44:29;;;;;;;26.30;17.85;;;6.80;96.60;;;;;;5052258;28;20074;-82
2022/11/12 03:46:55;;;;;;;20.65;16.73;;;6.80;96.60;;;;;;5035932;28;20127;-82
2022/11/12 03:49:20;;;;;;;20.77;15.20;;;6.80;96.60;;;;;;5036138;28;20045;-82
2022/11/12 03:51:46;;;;;;;26.30;18.08;;;6.90;96.60;;;;;;5019348;28;20495;-81
2022/11/12 03:54:12;;;;;;;20.45;14.85;;;6.90;96.60;;;;;;5018876;28;20051;-82
2022/11/12 03:56:38;;;;;;;29.95;19.40;;;7.00;96.60;;;;;;5035526;28;20088;-81
2022/11/12 03:59:04;;;;;;;29.35;18.70;;;7.00;96.70;;;;;;5035885;28;20392;-82
2022/11/12 04:01:30;;;;;;;22.50;16.60;;;7.10;96.70;;;;;;5019383;28;20499;-81
2022/11/12 04:03:56;;;;;;;32.10;21.33;;;7.10;96.70;;;;;;5035541;28;20131;-81
2022/11/12 04:09:06;;;;;;;;;;;7.10;96.60;;;;;;5086179;28;20045;-81
2022/11/12 04:11:32;;;;;;;34.85;20.73;;;7.20;96.90;;;;;;5068770;28;19932;-80
2022/11/12 04:13:59;;;;;;;32.05;22.02;;;7.20;96.90;;;;;;5018902;28;20072;-83
2022/11/12 04:22:05;;;;;;;62.83;29.42;;;7.30;97.00;;;;;;5085867;28;20397;-81
2022/11/12 04:27:23;;;;;;;106.22;35.70;;;7.40;97.00;;;;;;5088497;28;20102;-82
2022/11/12 04:32:36;;;;;;;;;;;7.50;97.20;;;;;;5090104;28;20041;-82
2022/11/12 04:35:04;;;;;;;105.95;33.30;;;7.50;97.30;;;;;;5039408;28;19978;-80
2022/11/12 04:37:43;;;;;;;106.68;34.13;;;7.50;97.30;;;;;;5023104;28;20186;-81
2022/11/12 04:46:02;;;;;;;132.75;40.28;;;7.60;97.50;;;;;;5089204;28;20045;-84
2022/11/12 04:48:28;;;;;;;66.97;30.35;;;7.70;97.50;;;;;;5038679;28;20033;-80
2022/11/12 04:51:02;;;;;;;169.38;43.15;;;7.70;97.50;;;;;;5039076;28;20086;-83
2022/11/12 04:53:29;;;;;;;164.25;42.85;;;7.80;97.60;;;;;;5055652;28;20039;-83
2022/11/12 04:55:56;;;;;;;108.90;37.22;;;7.80;97.80;;;;;;5072289;28;20131;-82
2022/11/12 04:58:22;;;;;;;103.45;37.65;;;7.80;97.70;;;;;;5038892;28;20041;-82
2022/11/12 05:00:49;;;;;;;112.45;36.25;;;7.90;97.70;;;;;;5022304;28;20048;-82
2022/11/12 05:03:15;;;;;;;162.00;41.67;;;7.90;97.60;;;;;;5038673;28;20060;-84
2022/11/12 05:05:41;;;;;;;195.23;48.15;;;7.90;97.50;;;;;;5022401;28;20041;-83
2022/11/12 05:08:06;;;;;;;53.58;26.45;;;8.00;97.50;;;;;;5038778;28;20041;-81
2022/11/12 05:10:32;;;;;;;99.38;34.95;;;8.00;97.50;;;;;;5055281;28;20041;-82
2022/11/12 05:12:58;;;;;;;101.35;32.55;;;8.00;97.50;;;;;;5038376;28;20040;-82
2022/11/12 05:15:24;;;;;;;102.05;35.45;;;8.00;97.40;;;;;;5038296;28;20041;-82
2022/11/12 05:17:50;;;;;;;190.00;47.03;;;8.00;97.50;;;;;;5022125;28;20044;-83
2022/11/12 05:20:15;;;;;;;218.10;50.08;;;8.00;97.50;;;;;;5038580;28;20500;-81
2022/11/12 05:22:41;;;;;;;143.80;39.55;;;8.10;97.50;;;;;;5021895;28;20128;-82
2022/11/12 05:25:07;;;;;;;95.53;39.00;;;8.10;97.70;;;;;;5038424;28;20100;-81
2022/11/12 05:27:34;;;;;;;215.10;50.63;;;8.10;97.70;;;;;;5021944;28;20043;-80
2022/11/12 05:30:00;;;;;;;201.00;48.85;;;8.10;97.90;;;;;;5038453;28;20076;-81
2022/11/12 05:32:26;;;;;;;215.13;47.55;;;8.20;97.80;;;;;;5055199;28;20083;-80
2022/11/12 05:34:52;;;;;;;264.33;52.83;;;8.20;98.00;;;;;;5021867;28;20473;-81
2022/11/12 05:37:18;;;;;;;339.67;61.22;;;8.30;97.90;;;;;;5038344;28;20512;-83
2022/11/12 05:39:44;;;;;;;344.58;62.80;;;8.30;98.20;;;;;;5038423;28;20051;-82
2022/11/12 05:42:09;;;;;;;228.93;52.60;;;8.40;98.30;;;;;;5021660;28;20548;-82
2022/11/12 05:44:35;;;;;;;113.22;34.15;;;8.40;98.00;;;;;;5054697;28;20037;-81
2022/11/12 05:47:01;;;;;;;214.05;51.38;;;8.40;98.20;;;;;;5038064;28;20127;-82
2022/11/12 05:49:27;;;;;;;178.82;48.58;;;8.40;98.50;;;;;;5033830;28;20040;-83
2022/11/12 05:51:52;;;;;;;253.80;54.67;;;8.40;98.40;;;;;;5041427;28;20032;-82
2022/11/12 05:54:18;;;;;;;166.68;43.90;;;8.40;98.50;;;;;;5058137;28;20048;-83
2022/11/12 05:56:44;;;;;;;261.77;58.63;;;8.50;98.50;;;;;;5041608;28;20385;-83
2022/11/12 05:59:12;;;;;;;187.07;47.92;;;8.40;98.50;;;;;;5074343;28;20127;-82
2022/11/12 06:01:42;;;;;;;136.48;44.90;;;8.40;98.40;;;;;;5041266;28;20427;-82
2022/11/12 06:04:13;;;;;;;182.55;44.97;;;8.40;98.40;;;;;;5057732;28;20079;-82
2022/11/12 06:06:40;;;;;;;222.75;51.83;;;8.40;98.40;;;;;;5091509;28;20501;-81
2022/11/12 06:09:06;;;;;;;221.77;51.63;;;8.40;98.40;;;;;;5074519;28;20125;-83
2022/11/12 06:11:31;;;;;;;134.40;42.47;;;8.40;98.40;;;;;;5057646;28;20071;-82
2022/11/12 06:14:00;;;;;;;296.50;60.15;;;8.40;98.30;;;;;;5040944;28;20117;-82
2022/11/12 06:16:27;;;;;;;237.38;52.40;;;8.40;98.40;;;;;;5074103;28;20115;-81
2022/11/12 06:18:53;;;;;;;332.08;64.32;;;8.40;98.50;;;;;;5074148;28;20135;-83
2022/11/12 06:21:18;;;;;;;164.75;48.85;;;8.40;98.40;;;;;;5040872;28;20123;-85
2022/11/12 06:23:46;;;;;;;275.98;56.35;;;8.40;98.50;;;;;;5040718;28;20044;-81
2022/11/12 06:26:12;;;;;;;215.25;47.03;;;8.40;98.50;;;;;;5074131;28;20060;-83
2022/11/12 06:28:38;;;;;;;222.68;53.28;;;8.40;98.50;;;;;;5074034;28;20068;-81
2022/11/12 06:31:04;;;;;;;274.17;52.28;;;8.30;98.50;;;;;;5057262;28;20068;-84
2022/11/12 06:33:30;;;;;;;184.63;46.15;;;8.30;98.50;;;;;;5056449;28;20445;-81
2022/11/12 06:36:01;;;;;;;324.52;63.45;;;8.30;98.60;;;;;;5055610;28;20078;-82
2022/11/12 06:38:38;;;;;;;248.70;60.63;;;8.30;98.70;;;;;;5039620;28;20151;-81
2022/11/12 06:41:05;;;;;;;272.10;62.47;;;8.20;98.70;;;;;;5055819;28;20150;-81
2022/11/12 06:43:32;;;;;;;135.75;47.15;;;8.30;98.70;;;;;;5056461;28;20041;-82
2022/11/12 06:46:10;;;;;;;282.38;60.92;;;8.30;98.60;;;;;;5039623;28;20045;-80
2022/11/12 06:48:36;;;;;;;296.92;66.85;;;8.30;98.60;;;;;;5056183;28;20087;-80
2022/11/12 06:51:07;;;;;;;205.82;54.00;;;8.20;98.60;;;;;;5056346;28;20071;-81
2022/11/12 06:53:33;;;;;;;273.95;60.72;;;8.20;98.70;;;;;;5056232;28;20036;-83
2022/11/12 06:56:04;;;;;;;205.70;56.38;;;8.20;98.40;;;;;;5055896;28;20427;-80
2022/11/12 06:58:30;;;;;;;323.77;68.68;;;8.20;98.50;;;;;;5072111;28;20040;-82
2022/11/12 07:00:56;;;;;;;176.48;53.88;;;8.20;98.60;;;;;;5038563;28;20039;-81
2022/11/12 07:03:22;;;;;;;289.63;63.33;;;8.20;98.60;;;;;;5039554;28;20045;-84
2022/11/12 07:05:47;;;;;;;175.85;58.47;;;8.20;98.60;;;;;;5056277;28;20055;-80
2022/11/12 07:08:13;;;;;;;213.93;58.97;;;8.20;98.70;;;;;;5055803;28;20037;-80
2022/11/12 07:10:39;;;;;;;232.27;53.42;;;8.20;98.60;;;;;;5056037;28;20388;-82
2022/11/12 07:13:04;;;;;;;308.65;62.75;;;8.10;98.60;;;;;;5055721;28;20446;-80
2022/11/12 07:15:30;;;;;;;320.52;61.42;;;8.10;98.60;;;;;;5055814;28;20039;-81
2022/11/12 07:17:56;;;;;;;135.63;46.22;;;8.10;98.70;;;;;;5039076;28;20040;-80
2022/11/12 07:20:21;;;;;;;233.13;54.97;;;8.10;98.80;;;;;;5039897;28;20040;-80
2022/11/12 07:22:47;;;;;;;401.45;77.78;;;8.10;98.80;;;;;;5039512;28;20044;-80
2022/11/12 07:25:13;;;;;;;268.92;60.17;;;8.10;98.80;;;;;;5055357;28;20098;-83
2022/11/12 07:27:38;;;;;;;424.63;78.63;;;8.10;98.60;;;;;;5054924;28;20043;-80
2022/11/12 07:30:05;;;;;;;277.75;59.03;;;8.10;98.70;;;;;;5038264;28;20395;-81
2022/11/12 07:32:30;;;;;;;295.63;57.63;;;8.10;98.70;;;;;;5039924;28;20415;-81
2022/11/12 07:34:56;;;;;;;306.23;58.28;;;8.10;98.70;;;;;;5056308;28;20048;-82
2022/11/12 07:37:22;;;;;;;107.15;40.38;;;8.00;98.60;;;;;;5039307;28;20544;-80
2022/11/12 07:39:49;;;;;;;156.80;47.72;;;8.00;98.70;;;;;;5038705;28;20128;-80
2022/11/12 07:42:15;;;;;;;199.63;54.05;;;8.00;98.70;;;;;;5055328;28;20158;-79
2022/11/12 07:44:40;;;;;;;157.05;46.65;;;8.00;98.60;;;;;;5055089;28;20471;-79
2022/11/12 07:47:06;;;;;;;178.10;49.85;;;8.00;98.50;;;;;;5071494;28;20041;-80
2022/11/12 07:49:32;;;;;;;189.95;47.22;;;8.00;98.50;;;;;;5055659;28;20127;-80
2022/11/12 07:51:57;;;;;;;165.10;48.90;;;7.90;98.60;;;;;;5038716;28;20549;-80
2022/11/12 07:54:23;;;;;;;183.02;48.85;;;8.00;98.60;;;;;;5038181;28;20049;-81
2022/11/12 07:56:49;;;;;;;227.85;53.72;;;8.00;98.60;;;;;;5072488;28;20044;-80
2022/11/12 07:59:14;;;;;;;329.90;66.65;;;8.00;98.60;;;;;;5072255;28;20586;-81
2022/11/12 08:01:40;;;;;;;277.08;61.47;;;8.00;98.60;;;;;;5071307;28;20098;-81
2022/11/12 08:04:08;;;;;;;126.90;40.65;;;8.00;98.70;;;;;;5038984;28;20076;-80
2022/11/12 08:06:35;;;;;;;141.27;44.35;;;8.00;98.70;;;;;;5072182;28;20123;-81
2022/11/12 08:09:03;;;;;;;205.82;52.38;;;8.00;98.70;;;;;;5038928;28;20041;-81
2022/11/12 08:11:30;;;;;;;157.68;46.80;;;8.00;98.60;;;;;;5055718;28;20388;-80
2022/11/12 08:13:56;;;;;;;174.07;48.92;;;8.00;98.60;;;;;;5089188;28;20037;-81
2022/11/12 08:16:22;;;;;;;96.88;39.25;;;8.00;98.70;;;;;;5038727;28;20536;-80
2022/11/12 08:18:48;;;;;;;178.05;51.47;;;8.00;98.70;;;;;;5055496;28;20123;-83
2022/11/12 08:21:15;;;;;;;78.18;35.78;;;8.00;98.70;;;;;;5055555;28;20513;-80
2022/11/12 08:23:41;;;;;;;177.95;57.72;;;8.10;98.70;;;;;;5039002;28;20098;-83
2022/11/12 08:26:11;;;;;;;77.03;37.03;;;8.00;98.60;;;;;;5055372;28;20047;-81
2022/11/12 08:28:37;;;;;;;158.90;46.33;;;8.00;98.70;;;;;;5038942;28;20055;-80
2022/11/12 08:31:07;;;;;;;61.50;31.77;;;8.00;98.70;;;;;;5071442;28;20048;-84
2022/11/12 08:33:34;;;;;;;92.95;37.58;;;8.00;98.70;;;;;;5071389;28;20072;-82
2022/11/12 08:36:08;;;;;;;118.10;40.72;;;8.00;98.60;;;;;;5053333;28;20514;-82
2022/11/12 08:38:34;;;;;;;118.07;42.65;;;8.00;98.70;;;;;;5068856;28;20203;-80
2022/11/12 08:41:01;;;;;;;121.63;41.03;;;8.00;98.70;;;;;;5036104;28;20044;-82
2022/11/12 08:43:27;;;;;;;109.90;39.55;;;8.00;98.60;;;;;;5070047;28;20535;-82
2022/11/12 08:45:52;;;;;;;71.53;33.95;;;8.00;98.60;;;;;;5037167;28;20132;-80
2022/11/12 08:48:18;;;;;;;122.25;40.30;;;7.90;98.60;;;;;;5070082;28;20041;-83
2022/11/12 08:50:44;;;;;;;84.80;36.67;;;7.90;98.60;;;;;;5053044;28;20063;-81
2022/11/12 08:53:12;;;;;;;95.60;36.85;;;7.90;98.60;;;;;;5054596;28;20078;-81
2022/11/12 08:55:38;;;;;;;89.40;35.08;;;8.00;98.60;;;;;;5037126;28;20049;-81
2022/11/12 08:58:04;;;;;;;101.70;35.58;;;8.00;98.60;;;;;;5054315;28;20048;-82
2022/11/12 09:00:45;;;;;;;77.85;34.40;;;7.90;98.40;;;;;;5053488;28;20396;-82
2022/11/12 09:03:19;;;;;;;104.78;35.97;;;7.90;98.50;;;;;;5052015;28;20045;-82
2022/11/12 09:05:44;;;;;;;107.30;38.10;;;7.80;98.40;;;;;;5053388;28;20095;-82
2022/11/12 09:08:14;;;;;;;93.72;35.22;;;7.80;98.50;;;;;;5070310;28;20485;-81
2022/11/12 09:10:40;;;;;;;126.22;39.58;;;7.80;98.40;;;;;;5054163;28;20399;-82
2022/11/12 09:13:06;;;;;;;100.53;33.55;;;7.80;98.30;;;;;;5039591;28;20149;-82
2022/11/12 09:15:32;;;;;;;92.53;34.38;;;7.70;98.40;;;;;;5057322;28;20040;-80
2022/11/12 09:18:03;;;;;;;75.10;35.78;;;7.70;98.30;;;;;;5040618;28;20506;-81
2022/11/12 09:20:30;;;;;;;125.65;36.72;;;7.70;98.40;;;;;;5073813;28;20040;-82
2022/11/12 09:23:07;;;;;;;115.00;40.70;;;7.70;98.30;;;;;;5057290;28;20439;-81
2022/11/12 09:25:34;;;;;;;129.77;44.63;;;7.70;98.30;;;;;;5057773;28;20067;-83
2022/11/12 09:28:08;;;;;;;111.80;35.28;;;7.70;98.30;;;;;;5057061;28;20051;-81
2022/11/12 09:30:35;;;;;;;102.38;35.63;;;7.70;98.30;;;;;;5055794;28;20348;-83
2022/11/12 09:33:00;;;;;;;147.95;39.47;;;7.60;98.30;;;;;;5057685;28;20365;-84
2022/11/12 09:35:26;;;;;;;88.70;35.63;;;7.60;98.00;;;;;;5040913;28;20102;-82
2022/11/12 09:37:51;;;;;;;168.75;40.10;;;7.60;98.20;;;;;;5040854;28;20079;-81
2022/11/12 09:40:19;;;;;;;66.35;32.65;;;7.50;98.20;;;;;;5041049;28;20044;-82
2022/11/12 09:42:50;;;;;;;148.13;41.72;;;7.60;98.30;;;;;;5074240;28;20071;-82
2022/11/12 09:45:28;;;;;;;98.30;34.53;;;7.60;98.20;;;;;;5057871;28;20047;-82
2022/11/12 09:48:06;;;;;;;120.07;35.67;;;7.50;98.20;;;;;;5074304;28;20036;-83
2022/11/12 09:50:56;;;;;;;138.93;39.15;;;7.60;98.20;;;;;;5056487;28;20040;-83
2022/11/12 09:53:40;;;;;;;120.28;32.78;;;7.50;98.20;;;;;;5057644;28;20037;-82
2022/11/12 09:56:11;;;;;;;142.23;42.63;;;7.50;98.20;;;;;;5057182;28;20048;-83
2022/11/12 09:58:37;;;;;;;112.97;36.45;;;7.60;98.30;;;;;;5057391;28;20287;-81
2022/11/12 10:01:16;;;;;;;103.38;39.25;;;7.50;98.30;;;;;;5040900;28;20040;-82
2022/11/12 10:03:42;;;;;;;98.78;38.47;;;7.60;98.40;;;;;;5057461;28;20041;-82
2022/11/12 10:06:17;;;;;;;121.72;42.38;;;7.60;98.40;;;;;;5057346;28;20506;-82
2022/11/12 10:08:54;;;;;;;101.70;41.38;;;7.60;98.40;;;;;;5057218;28;20040;-82
2022/11/12 10:18:04;;;;;;;87.93;39.17;;;7.70;98.10;;;;;;5073757;28;21349;-80
2022/11/12 10:21:16;;;;;;;85.68;37.92;;;7.70;98.30;;;;;;5056944;28;20041;-81
2022/11/12 10:23:48;;;;;;;151.77;46.17;;;7.70;98.40;;;;;;5043245;28;20052;-80
2022/11/12 10:26:19;;;;;;;107.85;47.20;;;7.70;98.40;;;;;;5073566;28;20546;-80
2022/11/12 10:29:04;;;;;;;99.65;40.00;;;7.80;98.30;;;;;;5040278;28;20514;-83
2022/11/12 10:31:30;;;;;;;118.18;40.90;;;7.80;98.40;;;;;;5056870;28;20502;-83
2022/11/12 10:34:19;;;;;;;85.22;35.85;;;7.80;98.30;;;;;;5056873;28;20040;-83
2022/11/12 10:36:50;;;;;;;105.82;39.58;;;7.80;98.30;;;;;;5056798;28;20083;-81
2022/11/12 10:39:34;;;;;;;87.85;36.50;;;7.90;98.40;;;;;;5073320;28;20037;-81
2022/11/12 10:42:07;;;;;;;130.32;41.40;;;7.90;98.30;;;;;;5056495;28;20036;-81
2022/11/12 10:44:33;;;;;;;109.93;43.50;;;7.90;98.30;;;;;;5073434;28;20106;-81
2022/11/12 10:47:20;;;;;;;99.45;38.95;;;7.90;98.40;;;;;;5073127;28;20476;-81
2022/11/12 10:50:13;;;;;;;87.60;41.22;;;7.90;98.40;;;;;;5056415;28;20041;-81
2022/11/12 10:52:52;;;;;;;113.25;42.22;;;8.00;98.40;;;;;;5072995;28;20041;-79
2022/11/12 10:55:25;;;;;;;74.05;35.85;;;8.00;98.40;;;;;;5056039;28;20070;-79
2022/11/12 10:58:10;;;;;;;120.70;45.30;;;8.00;98.40;;;;;;5072836;28;20056;-80
2022/11/12 11:00:51;;;;;;;123.90;49.42;;;8.00;98.40;;;;;;5056058;28;20044;-80
2022/11/12 11:03:22;;;;;;;113.32;46.80;;;8.10;98.50;;;;;;5073053;28;20048;-80
2022/11/12 11:06:07;;;;;;;95.47;43.83;;;8.10;98.40;;;;;;5056041;28;20052;-80
2022/11/12 11:08:41;;;;;;;104.20;44.63;;;8.10;98.40;;;;;;5041800;28;20081;-81
2022/11/12 11:11:16;;;;;;;88.82;41.88;;;8.20;98.40;;;;;;5056365;28;20288;-80
2022/11/12 11:13:46;;;;;;;123.72;48.17;;;8.30;98.40;;;;;;5055732;28;20480;-80
2022/11/12 11:16:15;;;;;;;99.47;44.97;;;8.30;98.40;;;;;;5040130;28;20068;-85
2022/11/12 11:18:44;;;;;;;96.53;43.08;;;8.30;98.40;;;;;;5072394;28;20036;-79
2022/11/12 11:21:32;;;;;;;96.78;44.72;;;8.40;98.20;;;;;;5072387;28;20032;-84
2022/11/12 11:24:18;;;;;;;115.50;48.38;;;8.40;98.30;;;;;;5055656;28;20070;-82
2022/11/12 11:27:12;;;;;;;88.88;42.17;;;8.40;98.30;;;;;;5072306;28;20063;-84
2022/11/12 11:30:09;;;;;;;115.00;52.38;;;8.50;98.30;;;;;;5072202;28;20155;-84
2022/11/12 11:32:56;;;;;;;124.53;53.10;;;8.50;98.40;;;;;;5055681;28;20173;-80
2022/11/12 11:35:44;;;;;;;106.20;51.00;;;8.60;98.40;;;;;;5050064;28;20056;-84
2022/11/12 11:38:40;;;;;;;113.55;53.92;;;8.60;98.40;;;;;;5048960;28;20048;-84
2022/11/12 11:41:29;;;;;;;90.03;44.55;;;8.70;98.40;;;;;;5051624;28;20404;-82
2022/11/12 11:44:32;;;;;;;112.13;55.42;;;8.70;98.40;;;;;;5069713;28;20048;-81
2022/11/12 11:47:05;;;;;;;94.95;47.88;;;8.80;98.40;;;;;;5068646;28;20036;-79
2022/11/12 11:50:13;;;;;;;84.28;44.50;;;8.80;98.30;;;;;;5068679;28;20068;-85
2022/11/12 11:52:45;;;;;;;108.25;50.55;;;8.90;98.40;;;;;;5041184;28;20127;-80
2022/11/12 11:55:27;;;;;;;113.30;51.05;;;8.80;98.30;;;;;;5053221;28;20079;-83
2022/11/12 11:58:20;;;;;;;118.75;54.05;;;8.80;98.40;;;;;;5054154;28;20438;-81
2022/11/12 12:01:12;;;;;;;108.70;51.80;;;8.80;98.30;;;;;;5071121;28;20044;-82
2022/11/12 12:04:10;;;;;;;96.35;48.50;;;8.90;98.30;;;;;;5055074;28;20045;-83
2022/11/12 12:07:05;;;;;;;97.38;50.80;;;8.90;98.20;;;;;;5054872;28;20040;-83
2022/11/12 12:09:45;;;;;;;100.70;52.03;;;9.00;98.30;;;;;;5024946;28;20053;-83
2022/11/12 12:12:26;;;;;;;106.53;51.58;;;8.90;98.20;;;;;;5054780;28;20098;-80
2022/11/12 12:15:21;;;;;;;93.75;48.05;;;8.90;98.20;;;;;;5071988;28;20422;-80
2022/11/12 12:18:00;;;;;;;107.82;53.30;;;8.90;98.20;;;;;;5054819;28;20048;-79
2022/11/12 12:20:41;;;;;;;108.13;53.35;;;8.90;98.20;;;;;;5055216;28;20438;-79
2022/11/12 12:23:17;;;;;;;100.85;50.80;;;8.90;98.20;;;;;;5054812;28;20053;-80
2022/11/12 12:25:45;;;;;;;113.10;54.40;;;8.90;98.00;;;;;;5055151;28;20049;-80
2022/11/12 12:28:33;;;;;;;99.47;51.30;;;8.90;98.10;;;;;;5038097;28;20134;-80
2022/11/12 12:31:06;;;;;;;103.95;53.28;;;9.00;98.20;;;;;;5071780;28;20442;-80
2022/11/12 12:33:48;;;;;;;96.43;48.40;;;8.90;98.00;;;;;;5071839;28;20032;-80
2022/11/12 12:36:25;;;;;;;101.97;52.78;;;9.00;98.10;;;;;;5054622;28;20037;-80
2022/11/12 12:39:24;;;;;;;111.75;56.85;;;9.00;98.10;;;;;;5071714;28;20127;-80
2022/11/12 12:41:59;;;;;;;88.65;48.30;;;9.00;98.10;;;;;;5071406;28;20048;-81
2022/11/12 12:44:58;;;;;;;110.97;56.05;;;9.10;98.00;;;;;;5054666;28;20097;-80
2022/11/12 12:47:17;;;;;;;97.22;53.50;;;9.20;97.80;;;;;;5072293;28;20044;-80
2022/11/12 12:49:44;;;;;;;89.05;50.30;;;9.10;97.80;;;;;;5058647;28;20076;-81
2022/11/12 12:52:16;;;;;;;100.13;53.50;;;9.20;97.90;;;;;;5075366;28;20041;-80
2022/11/12 12:54:51;;;;;;;105.47;54.22;;;9.30;97.90;;;;;;5058271;28;20127;-82
2022/11/12 12:57:36;;;;;;;106.95;53.55;;;9.30;97.70;;;;;;5058470;28;20060;-81
2022/11/12 13:00:29;;;;;;;100.30;53.42;;;9.30;97.60;;;;;;5058814;28;20101;-81
2022/11/12 13:02:55;;;;;;;101.93;54.60;;;9.30;97.70;;;;;;5058934;28;20466;-80
2022/11/12 13:05:35;;;;;;;115.75;57.20;;;9.30;97.40;;;;;;5058584;28;20036;-81
2022/11/12 13:08:18;;;;;;;106.40;54.42;;;9.30;97.60;;;;;;5074991;28;20426;-81
2022/11/12 13:10:50;;;;;;;106.85;56.28;;;9.30;97.60;;;;;;5058376;28;20051;-80
2022/11/12 13:13:16;;;;;;;91.47;53.65;;;9.30;97.60;;;;;;5055862;28;20082;-80
2022/11/12 13:15:52;;;;;;;94.57;54.30;;;9.40;97.60;;;;;;5053335;28;20072;-82